sensor_id;sensor_type;location;lat;lon;timestamp;temperature;humidity
13093;DHT22;6612;49.568;11.000;2024-01-27T00:01:51;7.90;67.50
13093;DHT22;6612;49.568;11.000;2024-01-27T00:04:18;7.90;67.50
13093;DHT22;6612;49.568;11.000;2024-01-27T00:06:46;7.80;67.60
13093;DHT22;6612;49.568;11.000;2024-01-27T00:09:13;7.70;67.50
13093;DHT22;6612;49.568;11.000;2024-01-27T00:11:40;7.60;67.70
13093;DHT22;6612;49.568;11.000;2024-01-27T00:14:07;7.60;67.90
13093;DHT22;6612;49.568;11.000;2024-01-27T00:16:34;7.50;67.90
13093;DHT22;6612;49.568;11.000;2024-01-27T00:19:01;7.50;68.00
13093;DHT22;6612;49.568;11.000;2024-01-27T00:21:28;7.40;67.90
13093;DHT22;6612;49.568;11.000;2024-01-27T00:23:56;7.40;68.00
13093;DHT22;6612;49.568;11.000;2024-01-27T00:26:26;7.40;67.90
13093;DHT22;6612;49.568;11.000;2024-01-27T00:28:53;7.30;68.00
13093;DHT22;6612;49.568;11.000;2024-01-27T00:31:20;7.30;68.10
13093;DHT22;6612;49.568;11.000;2024-01-27T00:33:47;7.20;68.10
13093;DHT22;6612;49.568;11.000;2024-01-27T00:36:14;7.20;68.10
13093;DHT22;6612;49.568;11.000;2024-01-27T00:38:42;7.10;68.10
13093;DHT22;6612;49.568;11.000;2024-01-27T00:41:16;7.10;68.10
13093;DHT22;6612;49.568;11.000;2024-01-27T00:43:43;7.00;67.90
13093;DHT22;6612;49.568;11.000;2024-01-27T00:46:10;7.00;68.20
13093;DHT22;6612;49.568;11.000;2024-01-27T00:48:37;7.00;68.30
13093;DHT22;6612;49.568;11.000;2024-01-27T00:51:04;6.90;68.30
13093;DHT22;6612;49.568;11.000;2024-01-27T00:53:31;6.90;68.40
13093;DHT22;6612;49.568;11.000;2024-01-27T00:55:58;6.80;68.40
13093;DHT22;6612;49.568;11.000;2024-01-27T00:58:27;6.80;68.40
13093;DHT22;6612;49.568;11.000;2024-01-27T01:00:54;6.80;68.40
13093;DHT22;6612;49.568;11.000;2024-01-27T01:03:21;6.70;68.50
13093;DHT22;6612;49.568;11.000;2024-01-27T01:05:48;6.70;68.50
13093;DHT22;6612;49.568;11.000;2024-01-27T01:08:15;6.70;68.60
13093;DHT22;6612;49.568;11.000;2024-01-27T01:10:42;6.60;67.90
13093;DHT22;6612;49.568;11.000;2024-01-27T01:13:09;6.60;68.60
13093;DHT22;6612;49.568;11.000;2024-01-27T01:15:37;6.60;68.70
13093;DHT22;6612;49.568;11.000;2024-01-27T01:18:05;6.60;68.60
13093;DHT22;6612;49.568;11.000;2024-01-27T01:20:32;6.50;68.60
13093;DHT22;6612;49.568;11.000;2024-01-27T01:22:59;6.50;68.60
13093;DHT22;6612;49.568;11.000;2024-01-27T01:25:26;6.50;68.60
13093;DHT22;6612;49.568;11.000;2024-01-27T01:27:53;6.40;68.60
13093;DHT22;6612;49.568;11.000;2024-01-27T01:30:20;6.40;68.60
13093;DHT22;6612;49.568;11.000;2024-01-27T01:32:49;6.40;68.70
13093;DHT22;6612;49.568;11.000;2024-01-27T01:35:17;6.30;68.60
13093;DHT22;6612;49.568;11.000;2024-01-27T01:37:44;6.30;68.70
13093;DHT22;6612;49.568;11.000;2024-01-27T01:40:11;6.30;68.80
13093;DHT22;6612;49.568;11.000;2024-01-27T01:42:38;6.20;68.70
13093;DHT22;6612;49.568;11.000;2024-01-27T01:45:05;6.20;68.80
13093;DHT22;6612;49.568;11.000;2024-01-27T01:47:32;6.20;68.80
13093;DHT22;6612;49.568;11.000;2024-01-27T01:50:02;6.20;68.90
13093;DHT22;6612;49.568;11.000;2024-01-27T01:52:30;6.10;68.70
13093;DHT22;6612;49.568;11.000;2024-01-27T01:54:57;6.10;68.80
13093;DHT22;6612;49.568;11.000;2024-01-27T01:57:24;6.10;68.90
13093;DHT22;6612;49.568;11.000;2024-01-27T01:59:51;6.00;68.80
13093;DHT22;6612;49.568;11.000;2024-01-27T02:02:18;6.00;68.80
13093;DHT22;6612;49.568;11.000;2024-01-27T02:04:45;6.00;68.90
13093;DHT22;6612;49.568;11.000;2024-01-27T02:07:14;6.00;68.90
13093;DHT22;6612;49.568;11.000;2024-01-27T02:09:41;5.90;68.90
13093;DHT22;6612;49.568;11.000;2024-01-27T02:12:09;5.90;68.90
13093;DHT22;6612;49.568;11.000;2024-01-27T02:14:36;5.90;68.90
13093;DHT22;6612;49.568;11.000;2024-01-27T02:17:04;5.90;68.90
13093;DHT22;6612;49.568;11.000;2024-01-27T02:19:31;5.80;68.80
13093;DHT22;6612;49.568;11.000;2024-01-27T02:21:58;5.80;68.80
13093;DHT22;6612;49.568;11.000;2024-01-27T02:24:27;5.70;68.70
13093;DHT22;6612;49.568;11.000;2024-01-27T02:26:54;5.70;68.70
13093;DHT22;6612;49.568;11.000;2024-01-27T02:29:21;5.70;68.80
13093;DHT22;6612;49.568;11.000;2024-01-27T02:31:48;5.70;68.80
13093;DHT22;6612;49.568;11.000;2024-01-27T02:34:15;5.60;68.80
13093;DHT22;6612;49.568;11.000;2024-01-27T02:36:42;5.60;68.90
13093;DHT22;6612;49.568;11.000;2024-01-27T02:39:10;5.60;68.90
13093;DHT22;6612;49.568;11.000;2024-01-27T02:41:38;5.50;68.90
13093;DHT22;6612;49.568;11.000;2024-01-27T02:44:05;5.50;68.90
13093;DHT22;6612;49.568;11.000;2024-01-27T02:46:32;5.50;68.90
13093;DHT22;6612;49.568;11.000;2024-01-27T02:48:59;5.40;68.90
13093;DHT22;6612;49.568;11.000;2024-01-27T02:51:26;5.40;69.00
13093;DHT22;6612;49.568;11.000;2024-01-27T02:53:53;5.40;69.10
13093;DHT22;6612;49.568;11.000;2024-01-27T02:56:20;5.40;69.10
13093;DHT22;6612;49.568;11.000;2024-01-27T02:58:49;5.30;69.10
13093;DHT22;6612;49.568;11.000;2024-01-27T03:01:16;5.30;69.10
13093;DHT22;6612;49.568;11.000;2024-01-27T03:03:43;5.30;69.10
13093;DHT22;6612;49.568;11.000;2024-01-27T03:06:10;5.30;69.20
13093;DHT22;6612;49.568;11.000;2024-01-27T03:08:37;5.30;69.30
13093;DHT22;6612;49.568;11.000;2024-01-27T03:11:04;5.20;69.20
13093;DHT22;6612;49.568;11.000;2024-01-27T03:13:31;5.20;69.30
13093;DHT22;6612;49.568;11.000;2024-01-27T03:15:59;5.20;69.40
13093;DHT22;6612;49.568;11.000;2024-01-27T03:18:26;5.20;69.50
13093;DHT22;6612;49.568;11.000;2024-01-27T03:20:53;5.20;68.70
13093;DHT22;6612;49.568;11.000;2024-01-27T03:23:20;5.10;69.50
13093;DHT22;6612;49.568;11.000;2024-01-27T03:25:47;5.10;69.60
13093;DHT22;6612;49.568;11.000;2024-01-27T03:28:14;5.10;69.70
13093;DHT22;6612;49.568;11.000;2024-01-27T03:30:41;5.10;69.10
13093;DHT22;6612;49.568;11.000;2024-01-27T03:33:10;5.10;69.80
13093;DHT22;6612;49.568;11.000;2024-01-27T03:35:39;5.10;69.90
13093;DHT22;6612;49.568;11.000;2024-01-27T03:38:07;5.10;70.10
13093;DHT22;6612;49.568;11.000;2024-01-27T03:40:34;5.10;70.10
13093;DHT22;6612;49.568;11.000;2024-01-27T03:43:01;5.00;70.00
13093;DHT22;6612;49.568;11.000;2024-01-27T03:45:28;5.00;70.00
13093;DHT22;6612;49.568;11.000;2024-01-27T03:47:55;5.00;69.90
13093;DHT22;6612;49.568;11.000;2024-01-27T03:50:23;5.00;69.80
13093;DHT22;6612;49.568;11.000;2024-01-27T03:52:50;5.00;69.70
13093;DHT22;6612;49.568;11.000;2024-01-27T03:55:17;5.00;69.70
13093;DHT22;6612;49.568;11.000;2024-01-27T03:57:44;4.90;69.60
13093;DHT22;6612;49.568;11.000;2024-01-27T04:00:13;4.90;69.60
13093;DHT22;6612;49.568;11.000;2024-01-27T04:02:40;4.90;69.60
13093;DHT22;6612;49.568;11.000;2024-01-27T04:05:07;4.90;69.70
13093;DHT22;6612;49.568;11.000;2024-01-27T04:07:35;4.90;69.70
13093;DHT22;6612;49.568;11.000;2024-01-27T04:10:03;4.80;69.60
13093;DHT22;6612;49.568;11.000;2024-01-27T04:12:30;4.80;69.60
13093;DHT22;6612;49.568;11.000;2024-01-27T04:14:58;4.80;69.60
13093;DHT22;6612;49.568;11.000;2024-01-27T04:17:25;4.80;69.70
13093;DHT22;6612;49.568;11.000;2024-01-27T04:19:52;4.80;69.70
13093;DHT22;6612;49.568;11.000;2024-01-27T04:22:19;4.70;69.60
13093;DHT22;6612;49.568;11.000;2024-01-27T04:24:50;4.70;69.60
13093;DHT22;6612;49.568;11.000;2024-01-27T04:27:17;4.70;69.60
13093;DHT22;6612;49.568;11.000;2024-01-27T04:29:44;4.70;69.60
13093;DHT22;6612;49.568;11.000;2024-01-27T04:32:12;4.70;69.70
13093;DHT22;6612;49.568;11.000;2024-01-27T04:34:39;4.60;69.50
13093;DHT22;6612;49.568;11.000;2024-01-27T04:37:06;4.60;69.50
13093;DHT22;6612;49.568;11.000;2024-01-27T04:39:33;4.60;69.50
13093;DHT22;6612;49.568;11.000;2024-01-27T04:42:02;4.60;69.40
13093;DHT22;6612;49.568;11.000;2024-01-27T04:44:29;4.50;69.40
13093;DHT22;6612;49.568;11.000;2024-01-27T04:46:56;4.50;69.40
13093;DHT22;6612;49.568;11.000;2024-01-27T04:49:23;4.50;69.40
13093;DHT22;6612;49.568;11.000;2024-01-27T04:51:50;4.50;69.50
13093;DHT22;6612;49.568;11.000;2024-01-27T04:54:17;4.40;69.40
13093;DHT22;6612;49.568;11.000;2024-01-27T04:56:44;4.40;69.50
13093;DHT22;6612;49.568;11.000;2024-01-27T04:59:13;4.40;69.50
13093;DHT22;6612;49.568;11.000;2024-01-27T05:01:43;4.40;69.60
13093;DHT22;6612;49.568;11.000;2024-01-27T05:04:10;4.40;69.60
13093;DHT22;6612;49.568;11.000;2024-01-27T05:06:37;4.40;69.70
13093;DHT22;6612;49.568;11.000;2024-01-27T05:09:05;4.30;69.50
13093;DHT22;6612;49.568;11.000;2024-01-27T05:11:32;4.30;69.40
13093;DHT22;6612;49.568;11.000;2024-01-27T05:13:59;4.30;69.40
13093;DHT22;6612;49.568;11.000;2024-01-27T05:16:28;4.20;69.30
13093;DHT22;6612;49.568;11.000;2024-01-27T05:18:55;4.20;69.20
13093;DHT22;6612;49.568;11.000;2024-01-27T05:21:22;4.30;69.30
13093;DHT22;6612;49.568;11.000;2024-01-27T05:23:49;4.20;69.10
13093;DHT22;6612;49.568;11.000;2024-01-27T05:26:16;4.10;69.00
13093;DHT22;6612;49.568;11.000;2024-01-27T05:28:43;4.10;69.90
13093;DHT22;6612;49.568;11.000;2024-01-27T05:31:10;4.10;69.10
13093;DHT22;6612;49.568;11.000;2024-01-27T05:33:39;4.00;69.00
13093;DHT22;6612;49.568;11.000;2024-01-27T05:36:06;4.00;69.10
13093;DHT22;6612;49.568;11.000;2024-01-27T05:38:33;4.00;69.30
13093;DHT22;6612;49.568;11.000;2024-01-27T05:41:01;4.00;69.40
13093;DHT22;6612;49.568;11.000;2024-01-27T05:43:28;3.90;69.30
13093;DHT22;6612;49.568;11.000;2024-01-27T05:45:55;3.90;69.40
13093;DHT22;6612;49.568;11.000;2024-01-27T05:48:22;3.90;69.40
13093;DHT22;6612;49.568;11.000;2024-01-27T05:50:57;3.90;68.70
13093;DHT22;6612;49.568;11.000;2024-01-27T05:53:24;3.90;69.90
13093;DHT22;6612;49.568;11.000;2024-01-27T05:55:51;3.80;69.40
13093;DHT22;6612;49.568;11.000;2024-01-27T05:58:19;3.90;69.50
13093;DHT22;6612;49.568;11.000;2024-01-27T06:00:46;3.80;68.80
13093;DHT22;6612;49.568;11.000;2024-01-27T06:03:14;3.80;69.50
13093;DHT22;6612;49.568;11.000;2024-01-27T06:05:42;3.80;69.50
13093;DHT22;6612;49.568;11.000;2024-01-27T06:08:11;3.80;70.30
13093;DHT22;6612;49.568;11.000;2024-01-27T06:10:38;3.70;68.90
13093;DHT22;6612;49.568;11.000;2024-01-27T06:13:05;3.70;69.50
13093;DHT22;6612;49.568;11.000;2024-01-27T06:15:32;3.70;69.50
13093;DHT22;6612;49.568;11.000;2024-01-27T06:17:59;3.70;69.50
13093;DHT22;6612;49.568;11.000;2024-01-27T06:20:26;3.70;69.50
13093;DHT22;6612;49.568;11.000;2024-01-27T06:22:53;3.70;69.50
13093;DHT22;6612;49.568;11.000;2024-01-27T06:25:21;3.60;69.50
13093;DHT22;6612;49.568;11.000;2024-01-27T06:27:48;3.60;69.60
13093;DHT22;6612;49.568;11.000;2024-01-27T06:30:16;3.60;69.70
13093;DHT22;6612;49.568;11.000;2024-01-27T06:32:43;3.60;69.80
13093;DHT22;6612;49.568;11.000;2024-01-27T06:35:10;3.60;70.00
13093;DHT22;6612;49.568;11.000;2024-01-27T06:37:37;3.60;69.90
13093;DHT22;6612;49.568;11.000;2024-01-27T06:40:05;3.60;69.90
13093;DHT22;6612;49.568;11.000;2024-01-27T06:42:36;3.50;69.80
13093;DHT22;6612;49.568;11.000;2024-01-27T06:45:03;3.50;69.80
13093;DHT22;6612;49.568;11.000;2024-01-27T06:47:31;3.50;69.70
13093;DHT22;6612;49.568;11.000;2024-01-27T06:49:58;3.50;69.70
13093;DHT22;6612;49.568;11.000;2024-01-27T06:52:25;3.50;69.70
13093;DHT22;6612;49.568;11.000;2024-01-27T06:54:52;3.50;69.70
13093;DHT22;6612;49.568;11.000;2024-01-27T06:57:19;3.40;69.70
13093;DHT22;6612;49.568;11.000;2024-01-27T06:59:49;3.40;69.70
13093;DHT22;6612;49.568;11.000;2024-01-27T07:02:19;3.40;69.80
13093;DHT22;6612;49.568;11.000;2024-01-27T07:04:46;3.40;70.00
13093;DHT22;6612;49.568;11.000;2024-01-27T07:07:13;3.40;70.10
13093;DHT22;6612;49.568;11.000;2024-01-27T07:09:40;3.40;70.20
13093;DHT22;6612;49.568;11.000;2024-01-27T07:12:07;3.40;70.30
13093;DHT22;6612;49.568;11.000;2024-01-27T07:14:35;3.40;70.40
13093;DHT22;6612;49.568;11.000;2024-01-27T07:17:04;3.40;70.60
13093;DHT22;6612;49.568;11.000;2024-01-27T07:19:31;3.40;70.70
13093;DHT22;6612;49.568;11.000;2024-01-27T07:21:59;3.40;70.80
13093;DHT22;6612;49.568;11.000;2024-01-27T07:24:26;3.40;70.90
13093;DHT22;6612;49.568;11.000;2024-01-27T07:26:53;3.40;70.90
13093;DHT22;6612;49.568;11.000;2024-01-27T07:29:20;3.50;71.10
13093;DHT22;6612;49.568;11.000;2024-01-27T07:31:48;3.50;71.20
13093;DHT22;6612;49.568;11.000;2024-01-27T07:34:16;3.50;71.30
13093;DHT22;6612;49.568;11.000;2024-01-27T07:36:44;3.50;71.40
13093;DHT22;6612;49.568;11.000;2024-01-27T07:39:11;3.50;71.50
13093;DHT22;6612;49.568;11.000;2024-01-27T07:41:38;3.50;71.70
13093;DHT22;6612;49.568;11.000;2024-01-27T07:44:09;3.60;72.00
13093;DHT22;6612;49.568;11.000;2024-01-27T07:46:36;3.60;72.10
13093;DHT22;6612;49.568;11.000;2024-01-27T07:49:03;3.60;72.50
13093;DHT22;6612;49.568;11.000;2024-01-27T07:51:32;3.70;73.20
13093;DHT22;6612;49.568;11.000;2024-01-27T07:53:59;3.80;74.10
13093;DHT22;6612;49.568;11.000;2024-01-27T07:56:26;3.90;75.20
13093;DHT22;6612;49.568;11.000;2024-01-27T07:58:54;4.00;75.90
13093;DHT22;6612;49.568;11.000;2024-01-27T08:01:21;4.10;77.00
13093;DHT22;6612;49.568;11.000;2024-01-27T08:03:48;4.30;78.40
13093;DHT22;6612;49.568;11.000;2024-01-27T08:06:16;4.60;79.30
13093;DHT22;6612;49.568;11.000;2024-01-27T08:08:46;4.80;79.40
13093;DHT22;6612;49.568;11.000;2024-01-27T08:11:14;5.00;79.40
13093;DHT22;6612;49.568;11.000;2024-01-27T08:13:41;5.20;79.80
13093;DHT22;6612;49.568;11.000;2024-01-27T08:16:08;5.40;80.70
13093;DHT22;6612;49.568;11.000;2024-01-27T08:18:38;5.70;82.20
13093;DHT22;6612;49.568;11.000;2024-01-27T08:21:05;6.00;83.50
13093;DHT22;6612;49.568;11.000;2024-01-27T08:23:32;6.40;84.30
13093;DHT22;6612;49.568;11.000;2024-01-27T08:26:00;6.80;85.00
13093;DHT22;6612;49.568;11.000;2024-01-27T08:28:28;7.20;83.80
13093;DHT22;6612;49.568;11.000;2024-01-27T08:30:55;7.80;81.50
13093;DHT22;6612;49.568;11.000;2024-01-27T08:33:21;7.90;82.00
13093;DHT22;6612;49.568;11.000;2024-01-27T08:35:49;8.20;81.30
13093;DHT22;6612;49.568;11.000;2024-01-27T08:38:16;8.60;80.20
13093;DHT22;6612;49.568;11.000;2024-01-27T08:40:43;9.00;77.00
13093;DHT22;6612;49.568;11.000;2024-01-27T08:43:12;9.00;77.40
13093;DHT22;6612;49.568;11.000;2024-01-27T08:45:39;9.10;75.90
13093;DHT22;6612;49.568;11.000;2024-01-27T08:48:07;9.20;75.40
13093;DHT22;6612;49.568;11.000;2024-01-27T08:50:35;9.30;74.30
13093;DHT22;6612;49.568;11.000;2024-01-27T08:53:02;9.30;73.80
13093;DHT22;6612;49.568;11.000;2024-01-27T08:55:29;9.30;73.10
13093;DHT22;6612;49.568;11.000;2024-01-27T08:57:56;9.30;72.30
13093;DHT22;6612;49.568;11.000;2024-01-27T09:00:25;9.20;71.90
13093;DHT22;6612;49.568;11.000;2024-01-27T09:02:52;9.10;71.20
13093;DHT22;6612;49.568;11.000;2024-01-27T09:05:19;9.10;71.60
13093;DHT22;6612;49.568;11.000;2024-01-27T09:07:46;9.00;72.40
13093;DHT22;6612;49.568;11.000;2024-01-27T09:10:13;9.00;73.60
13093;DHT22;6612;49.568;11.000;2024-01-27T09:12:41;9.00;75.00
13093;DHT22;6612;49.568;11.000;2024-01-27T09:15:09;9.10;75.40
13093;DHT22;6612;49.568;11.000;2024-01-27T09:17:38;9.20;75.40
13093;DHT22;6612;49.568;11.000;2024-01-27T09:20:06;9.40;74.90
13093;DHT22;6612;49.568;11.000;2024-01-27T09:22:33;9.50;75.10
13093;DHT22;6612;49.568;11.000;2024-01-27T09:25:00;9.70;75.40
13093;DHT22;6612;49.568;11.000;2024-01-27T09:27:27;9.80;74.80
13093;DHT22;6612;49.568;11.000;2024-01-27T09:29:54;9.90;74.20
13093;DHT22;6612;49.568;11.000;2024-01-27T09:32:21;10.00;72.70
13093;DHT22;6612;49.568;11.000;2024-01-27T09:34:49;10.00;72.00
13093;DHT22;6612;49.568;11.000;2024-01-27T09:37:19;10.10;70.90
13093;DHT22;6612;49.568;11.000;2024-01-27T09:39:46;10.10;71.50
13093;DHT22;6612;49.568;11.000;2024-01-27T09:42:14;10.20;72.70
13093;DHT22;6612;49.568;11.000;2024-01-27T09:44:43;10.20;71.80
13093;DHT22;6612;49.568;11.000;2024-01-27T09:47:11;10.30;71.60
13093;DHT22;6612;49.568;11.000;2024-01-27T09:49:39;10.40;71.90
13093;DHT22;6612;49.568;11.000;2024-01-27T09:52:09;10.50;71.20
13093;DHT22;6612;49.568;11.000;2024-01-27T09:54:36;10.60;70.60
13093;DHT22;6612;49.568;11.000;2024-01-27T09:57:03;10.70;70.50
13093;DHT22;6612;49.568;11.000;2024-01-27T09:59:32;10.70;70.00
13093;DHT22;6612;49.568;11.000;2024-01-27T10:02:00;10.70;69.30
13093;DHT22;6612;49.568;11.000;2024-01-27T10:04:29;10.80;69.30
13093;DHT22;6612;49.568;11.000;2024-01-27T10:06:58;10.80;68.90
13093;DHT22;6612;49.568;11.000;2024-01-27T10:09:26;10.80;67.90
13093;DHT22;6612;49.568;11.000;2024-01-27T10:11:54;10.80;67.60
13093;DHT22;6612;49.568;11.000;2024-01-27T10:14:23;10.80;67.50
13093;DHT22;6612;49.568;11.000;2024-01-27T10:16:50;10.70;67.30
13093;DHT22;6612;49.568;11.000;2024-01-27T10:19:18;10.70;67.40
13093;DHT22;6612;49.568;11.000;2024-01-27T10:21:47;10.70;67.70
13093;DHT22;6612;49.568;11.000;2024-01-27T10:24:14;10.70;68.30
13093;DHT22;6612;49.568;11.000;2024-01-27T10:26:43;10.70;68.90
13093;DHT22;6612;49.568;11.000;2024-01-27T10:29:10;10.80;69.00
13093;DHT22;6612;49.568;11.000;2024-01-27T10:31:37;11.00;69.30
13093;DHT22;6612;49.568;11.000;2024-01-27T10:34:05;11.00;68.70
13093;DHT22;6612;49.568;11.000;2024-01-27T10:36:41;11.10;68.10
13093;DHT22;6612;49.568;11.000;2024-01-27T10:39:16;11.10;66.60
13093;DHT22;6612;49.568;11.000;2024-01-27T10:41:45;11.10;66.80
13093;DHT22;6612;49.568;11.000;2024-01-27T10:44:14;11.20;67.90
13093;DHT22;6612;49.568;11.000;2024-01-27T10:46:43;11.30;68.40
13093;DHT22;6612;49.568;11.000;2024-01-27T10:49:12;11.40;69.00
13093;DHT22;6612;49.568;11.000;2024-01-27T10:51:43;11.50;69.00
13093;DHT22;6612;49.568;11.000;2024-01-27T10:54:14;11.60;68.50
13093;DHT22;6612;49.568;11.000;2024-01-27T10:56:42;11.70;68.40
13093;DHT22;6612;49.568;11.000;2024-01-27T10:59:13;11.80;68.40
13093;DHT22;6612;49.568;11.000;2024-01-27T11:01:41;11.90;67.50
13093;DHT22;6612;49.568;11.000;2024-01-27T11:04:10;12.00;67.80
13093;DHT22;6612;49.568;11.000;2024-01-27T11:06:39;12.00;67.20
13093;DHT22;6612;49.568;11.000;2024-01-27T11:09:08;12.00;66.60
13093;DHT22;6612;49.568;11.000;2024-01-27T11:11:38;12.00;65.90
13093;DHT22;6612;49.568;11.000;2024-01-27T11:14:06;12.00;65.00
13093;DHT22;6612;49.568;11.000;2024-01-27T11:16:36;11.90;64.80
13093;DHT22;6612;49.568;11.000;2024-01-27T11:19:09;11.80;64.00
13093;DHT22;6612;49.568;11.000;2024-01-27T11:21:37;11.80;64.10
13093;DHT22;6612;49.568;11.000;2024-01-27T11:24:13;11.70;63.80
13093;DHT22;6612;49.568;11.000;2024-01-27T11:26:40;11.60;62.80
13093;DHT22;6612;49.568;11.000;2024-01-27T11:29:07;11.50;63.70
13093;DHT22;6612;49.568;11.000;2024-01-27T11:31:40;11.40;63.40
13093;DHT22;6612;49.568;11.000;2024-01-27T11:34:11;11.30;62.20
13093;DHT22;6612;49.568;11.000;2024-01-27T11:36:42;11.30;62.50
13093;DHT22;6612;49.568;11.000;2024-01-27T11:39:25;11.20;63.20
13093;DHT22;6612;49.568;11.000;2024-01-27T11:41:53;11.10;62.20
13093;DHT22;6612;49.568;11.000;2024-01-27T11:44:30;11.00;63.40
13093;DHT22;6612;49.568;11.000;2024-01-27T11:46:59;11.00;63.30
13093;DHT22;6612;49.568;11.000;2024-01-27T11:49:27;10.90;63.00
13093;DHT22;6612;49.568;11.000;2024-01-27T11:51:54;10.90;63.20
13093;DHT22;6612;49.568;11.000;2024-01-27T11:54:21;10.80;63.30
13093;DHT22;6612;49.568;11.000;2024-01-27T11:56:48;10.80;63.20
13093;DHT22;6612;49.568;11.000;2024-01-27T11:59:15;10.70;63.10
13093;DHT22;6612;49.568;11.000;2024-01-27T12:01:42;10.70;63.00
13093;DHT22;6612;49.568;11.000;2024-01-27T12:04:10;10.70;62.80
13093;DHT22;6612;49.568;11.000;2024-01-27T12:06:39;10.60;62.60
13093;DHT22;6612;49.568;11.000;2024-01-27T12:09:06;10.60;63.10
13093;DHT22;6612;49.568;11.000;2024-01-27T12:11:38;10.50;62.90
13093;DHT22;6612;49.568;11.000;2024-01-27T12:14:05;10.50;62.90
13093;DHT22;6612;49.568;11.000;2024-01-27T12:16:32;10.50;62.90
13093;DHT22;6612;49.568;11.000;2024-01-27T12:18:59;10.50;62.70
13093;DHT22;6612;49.568;11.000;2024-01-27T12:21:28;10.40;62.60
13093;DHT22;6612;49.568;11.000;2024-01-27T12:23:56;10.40;62.30
13093;DHT22;6612;49.568;11.000;2024-01-27T12:26:25;10.40;62.60
13093;DHT22;6612;49.568;11.000;2024-01-27T12:28:54;10.40;62.50
13093;DHT22;6612;49.568;11.000;2024-01-27T12:31:22;10.40;62.50
13093;DHT22;6612;49.568;11.000;2024-01-27T12:33:50;10.40;62.60
13093;DHT22;6612;49.568;11.000;2024-01-27T12:36:18;10.40;62.80
13093;DHT22;6612;49.568;11.000;2024-01-27T12:38:59;10.40;62.80
13093;DHT22;6612;49.568;11.000;2024-01-27T12:41:26;10.40;62.00
13093;DHT22;6612;49.568;11.000;2024-01-27T12:43:54;10.40;63.10
13093;DHT22;6612;49.568;11.000;2024-01-27T12:46:21;10.40;63.00
13093;DHT22;6612;49.568;11.000;2024-01-27T12:48:48;10.40;62.90
13093;DHT22;6612;49.568;11.000;2024-01-27T12:51:15;10.50;62.80
13093;DHT22;6612;49.568;11.000;2024-01-27T12:53:43;10.50;62.70
13093;DHT22;6612;49.568;11.000;2024-01-27T12:56:12;10.50;62.30
13093;DHT22;6612;49.568;11.000;2024-01-27T12:58:40;10.50;62.00
13093;DHT22;6612;49.568;11.000;2024-01-27T13:01:08;10.50;62.40
13093;DHT22;6612;49.568;11.000;2024-01-27T13:03:35;10.50;62.20
13093;DHT22;6612;49.568;11.000;2024-01-27T13:06:03;10.50;62.40
13093;DHT22;6612;49.568;11.000;2024-01-27T13:08:30;10.40;62.30
13093;DHT22;6612;49.568;11.000;2024-01-27T13:10:57;10.50;60.70
13093;DHT22;6612;49.568;11.000;2024-01-27T13:13:26;10.50;62.20
13093;DHT22;6612;49.568;11.000;2024-01-27T13:15:53;10.40;61.60
13093;DHT22;6612;49.568;11.000;2024-01-27T13:18:20;10.50;62.10
13093;DHT22;6612;49.568;11.000;2024-01-27T13:20:47;10.50;61.20
13093;DHT22;6612;49.568;11.000;2024-01-27T13:23:14;10.40;62.00
13093;DHT22;6612;49.568;11.000;2024-01-27T13:25:41;10.50;62.30
13093;DHT22;6612;49.568;11.000;2024-01-27T13:28:08;10.50;62.50
13093;DHT22;6612;49.568;11.000;2024-01-27T13:30:38;10.50;62.60
13093;DHT22;6612;49.568;11.000;2024-01-27T13:33:05;10.50;62.40
13093;DHT22;6612;49.568;11.000;2024-01-27T13:35:32;10.50;62.60
13093;DHT22;6612;49.568;11.000;2024-01-27T13:37:59;10.60;62.60
13093;DHT22;6612;49.568;11.000;2024-01-27T13:40:26;10.60;62.50
13093;DHT22;6612;49.568;11.000;2024-01-27T13:42:53;10.60;62.20
13093;DHT22;6612;49.568;11.000;2024-01-27T13:45:21;10.60;62.10
13093;DHT22;6612;49.568;11.000;2024-01-27T13:47:49;10.60;62.00
13093;DHT22;6612;49.568;11.000;2024-01-27T13:50:16;10.60;61.80
13093;DHT22;6612;49.568;11.000;2024-01-27T13:52:43;10.60;61.90
13093;DHT22;6612;49.568;11.000;2024-01-27T13:55:11;10.60;61.80
13093;DHT22;6612;49.568;11.000;2024-01-27T13:57:38;10.60;61.50
13093;DHT22;6612;49.568;11.000;2024-01-27T14:00:07;10.60;61.30
13093;DHT22;6612;49.568;11.000;2024-01-27T14:02:35;10.50;61.00
13093;DHT22;6612;49.568;11.000;2024-01-27T14:05:04;10.50;60.90
13093;DHT22;6612;49.568;11.000;2024-01-27T14:07:32;10.50;60.60
13093;DHT22;6612;49.568;11.000;2024-01-27T14:10:00;10.40;60.60
13093;DHT22;6612;49.568;11.000;2024-01-27T14:12:27;10.40;60.60
13093;DHT22;6612;49.568;11.000;2024-01-27T14:15:02;10.30;60.70
13093;DHT22;6612;49.568;11.000;2024-01-27T14:17:29;10.30;59.90
13093;DHT22;6612;49.568;11.000;2024-01-27T14:19:56;10.20;60.50
13093;DHT22;6612;49.568;11.000;2024-01-27T14:22:25;10.20;60.40
13093;DHT22;6612;49.568;11.000;2024-01-27T14:24:52;10.10;60.00
13093;DHT22;6612;49.568;11.000;2024-01-27T14:27:20;10.10;60.40
13093;DHT22;6612;49.568;11.000;2024-01-27T14:29:51;10.10;60.50
13093;DHT22;6612;49.568;11.000;2024-01-27T14:32:18;10.00;60.40
13093;DHT22;6612;49.568;11.000;2024-01-27T14:34:45;10.00;60.50
13093;DHT22;6612;49.568;11.000;2024-01-27T14:37:13;9.90;61.50
13093;DHT22;6612;49.568;11.000;2024-01-27T14:39:43;9.90;61.50
13093;DHT22;6612;49.568;11.000;2024-01-27T14:42:12;9.80;61.20
13093;DHT22;6612;49.568;11.000;2024-01-27T14:44:39;9.80;61.50
13093;DHT22;6612;49.568;11.000;2024-01-27T14:47:08;9.80;61.50
13093;DHT22;6612;49.568;11.000;2024-01-27T14:49:35;9.70;61.40
13093;DHT22;6612;49.568;11.000;2024-01-27T14:52:04;9.70;61.30
13093;DHT22;6612;49.568;11.000;2024-01-27T14:54:32;9.70;61.10
13093;DHT22;6612;49.568;11.000;2024-01-27T14:57:01;9.60;61.00
13093;DHT22;6612;49.568;11.000;2024-01-27T14:59:28;9.60;60.90
13093;DHT22;6612;49.568;11.000;2024-01-27T15:01:55;9.50;61.00
13093;DHT22;6612;49.568;11.000;2024-01-27T15:04:24;9.50;61.10
13093;DHT22;6612;49.568;11.000;2024-01-27T15:06:52;9.50;61.20
13093;DHT22;6612;49.568;11.000;2024-01-27T15:09:20;9.40;61.10
13093;DHT22;6612;49.568;11.000;2024-01-27T15:11:47;9.40;61.20
13093;DHT22;6612;49.568;11.000;2024-01-27T15:14:16;9.30;61.00
13093;DHT22;6612;49.568;11.000;2024-01-27T15:16:43;9.30;60.70
13093;DHT22;6612;49.568;11.000;2024-01-27T15:19:11;9.20;60.80
13093;DHT22;6612;49.568;11.000;2024-01-27T15:21:38;9.20;60.80
13093;DHT22;6612;49.568;11.000;2024-01-27T15:24:05;9.10;60.70
13093;DHT22;6612;49.568;11.000;2024-01-27T15:26:32;9.10;60.70
13093;DHT22;6612;49.568;11.000;2024-01-27T15:28:59;9.10;60.80
13093;DHT22;6612;49.568;11.000;2024-01-27T15:31:28;9.00;60.70
13093;DHT22;6612;49.568;11.000;2024-01-27T15:33:55;8.90;60.40
13093;DHT22;6612;49.568;11.000;2024-01-27T15:36:22;8.90;60.60
13093;DHT22;6612;49.568;11.000;2024-01-27T15:38:49;8.80;60.50
13093;DHT22;6612;49.568;11.000;2024-01-27T15:41:16;8.80;60.60
13093;DHT22;6612;49.568;11.000;2024-01-27T15:43:44;8.70;60.50